Tolstoy, SD

5:27 AM CDT on May 29, 2015 (GMT -0500)
KSDHOVEN2 | | Change Station
CLOSE
Current Station
Personal Weather Station
Location: Hoven, SD
Elevation: 1877 ft
Nearby Weather Stations

Elev 1877 ft 45.24 °N, 99.78 °W | Updated 7 minutes ago

Overcast
Overcast
59.9 °F
Feels Like 59.9 °F
N
8.7
Wind Variable Wind from NNW
Gusts 11.0 mph

Today
High -- | Low -- °F
--% Chance of Precip.
Yesterday
High -- | Low -- °F
Precip. -- in
5:56 AM 9:15 PM
Waxing Gibbous, 82% visible
Pressure 29.92 in
Visibility 10.0 miles
Clouds Overcast 1100 ft
Dew Point 58 °F
Humidity 94%
Rainfall 0.08 in
Snow Depth Not available.
UV 0 out of 12
Pollen 6.40 out of 12
Air Quality Not available.
Flu Activity Sporadic
METAR KMBG 290952Z AUTO 36018G28KT 10SM OVC011 14/13 A2994 RMK AO2 PK WND 36028/0946 SLP131 T01390128 $

More Conditions Fewer Conditions

Pressure 29.92 in
Visibility 10.0 miles
Clouds Overcast 1100 ft
Dew Point 58 °F
Humidity 94%
Rainfall 0.08 in
Snow Depth Not available.
UV 0 out of 12
Pollen 6.40 out of 12
Air Quality Not available.
Flu Activity Sporadic
METAR KMBG 290952Z AUTO 36018G28KT 10SM OVC011 14/13 A2994 RMK AO2 PK WND 36028/0946 SLP131 T01390128 $

More Conditions Fewer Conditions

10-Day Weather Forecast

Almanac

Astronomy

May. 29, 2015 Rise Set
Actual Time
Civil Twilight
Nautical Twilight
Astronomical Twilight
Moon
Length of Visible Light
Length of Day
Tomorrow will be .
, % of the Moon is Illuminated

Today's Extremes

State Highs State Lows

Community

WunderPhotos

Upload Photos

1,825,228 photos uploaded!

WunderBlogs® & News

Nearby

Air Quality

  Air Quality AQ Index Pollutant
Not available.

Snow Depth

Station Depth Elevation

Earthquake Activity

City Distance Mag. Time & Date
Minimum magnitude displayed is 2.5.

Coastal Water Temperatures

Place Temperature

Stations

Nearby Weather Stations

Station Location Temp. Windchill Dew Point Humidity Wind Precip. Elev Updated Type